Osku, Iran
Current Conditions -  °F | °C
As of 11:30 AM on Saturday 25 Oct 2014 (Local Time) from OITT Reporting Station
Clear Clear  
Wind Chill: 61°   Ceiling: Unl
Heat Index: 61°   Visibility: 4mi
Dew Point: 43°   Wind: 7mph
Humidity: 52%   Direction: 260°W
Pressure: 30.12"   Gusts: NA
Location:  37.91°N, 46.14°E
Report Text: OITT 250830Z 26006KT 6000 NSC 16/06 Q1020 A3014
Loading
Personal Weather Stations






























Interactive Weather Map
Tropical Storm Tracking
New forecast layout! Learn more

10-Day Weather Forecast

Advertisements
Track Severe Weather on mobile